Time;durP1;ratioP1;P1;durP2;ratioP2;P2;SDS_P1;SDS_P2;PMS_P1;PMS_P2;Temp;Humidity;BMP_temperature;BMP_pressure;BME280_temperature;BME280_humidity;BME280_pressure;Samples;Min_cycle;Max_cycle;Signal;HPM_P1;HPM_P2
2022/12/28 00:01:50;;;;;;;;;;;;;;;11.07;73.22;102391.25;5055349;28;20582;-86
2022/12/28 00:04:15;;;;;;;;;;;;;;;11.06;73.22;102396.34;5086630;28;20405;-85
2022/12/28 00:06:41;;;;;;;;;;;;;;;11.06;73.44;102392.00;5091760;28;20451;-85
2022/12/28 00:09:07;;;;;;;;;;;;;;;11.09;72.97;102407.03;5088124;28;19921;-85
2022/12/28 00:11:32;;;;;;;;;;;;;;;11.06;73.02;102418.16;5097026;28;20221;-85
2022/12/28 00:13:58;;;;;;;;;;;;;;;11.08;73.36;102415.66;5060349;28;19925;-85
2022/12/28 00:16:27;;;;;;;;;;;;;;;11.07;73.29;102413.84;5099639;28;19970;-85
2022/12/28 00:18:53;;;;;;;;;;;;;;;11.08;73.22;102419.19;5060130;28;20313;-85
2022/12/28 00:21:19;;;;;;;;;;;;;;;11.10;72.95;102419.31;5089539;28;19924;-83
2022/12/28 00:23:47;;;;;;;;;;;;;;;11.10;73.22;102419.31;5054734;28;19921;-85
2022/12/28 00:26:13;;;;;;;;;;;;;;;11.10;73.22;102432.38;5096749;28;19932;-85
2022/12/28 00:28:39;;;;;;;;;;;;;;;11.12;72.90;102433.41;5095997;28;19920;-85
2022/12/28 00:31:04;;;;;;;;;;;;;;;11.10;72.90;102441.13;5074885;28;20007;-85
2022/12/28 00:33:30;;;;;;;;;;;;;;;11.13;73.16;102430.00;5090867;28;20011;-85
2022/12/28 00:35:56;;;;;;;;;;;;;;;11.12;72.95;102441.28;5085690;28;20454;-85
2022/12/28 00:38:21;;;;;;;;;;;;;;;11.11;72.88;102448.22;5068925;28;20532;-85
2022/12/28 00:40:46;;;;;;;;;;;;;;;11.11;73.15;102453.44;5038425;28;20321;-85
2022/12/28 00:43:12;;;;;;;;;;;;;;;11.12;72.93;102457.88;5102525;28;19920;-85
2022/12/28 00:45:37;;;;;;;;;;;;;;;11.12;73.18;102452.63;5062512;28;19921;-85
2022/12/28 00:48:03;;;;;;;;;;;;;;;11.12;73.12;102455.25;5080947;28;20443;-85
2022/12/28 00:50:28;;;;;;;;;;;;;;;11.12;72.91;102460.47;5054489;28;20295;-85
2022/12/28 00:52:54;;;;;;;;;;;;;;;11.13;73.18;102464.00;5086053;28;19924;-86
2022/12/28 00:55:19;;;;;;;;;;;;;;;11.12;72.95;102465.69;5070218;28;20408;-85
2022/12/28 00:57:44;;;;;;;;;;;;;;;11.14;72.88;102466.75;5052152;28;20304;-86
2022/12/28 01:00:10;;;;;;;;;;;;;;;11.13;72.80;102474.44;5088375;28;19916;-85
2022/12/28 01:02:36;;;;;;;;;;;;;;;11.14;72.57;102469.34;5054180;28;19924;-86
2022/12/28 01:05:01;;;;;;;;;;;;;;;11.15;72.79;102470.25;5084185;28;19920;-86
2022/12/28 01:07:27;;;;;;;;;;;;;;;11.16;72.54;102467.78;5090612;28;19921;-85
2022/12/28 01:09:52;;;;;;;;;;;;;;;11.16;73.01;102467.78;5088337;28;20451;-85
2022/12/28 01:12:18;;;;;;;;;;;;;;;11.15;72.71;102462.41;5063127;28;20408;-85
2022/12/28 01:14:43;;;;;;;;;;;;;;;11.18;72.81;102467.91;5097277;28;20539;-85
2022/12/28 01:17:08;;;;;;;;;;;;;;;11.18;72.92;102460.97;5057499;28;20615;-85
2022/12/28 01:19:35;;;;;;;;;;;;;;;11.18;72.79;102479.25;5100546;28;19942;-85
2022/12/28 01:22:00;;;;;;;;;;;;;;;11.19;72.64;102480.16;5056982;28;19917;-85
2022/12/28 01:24:25;;;;;;;;;;;;;;;11.19;72.77;102485.41;5088873;28;19946;-85
2022/12/28 01:26:51;;;;;;;;;;;;;;;11.19;72.78;102488.91;5066401;28;20023;-85
2022/12/28 01:29:16;;;;;;;;;;;;;;;11.20;72.81;102487.25;5055987;28;20027;-86
2022/12/28 01:31:42;;;;;;;;;;;;;;;11.17;72.97;102493.13;5055940;28;19924;-86
2022/12/28 01:34:07;;;;;;;;;;;;;;;11.19;72.73;102498.47;5062139;28;20441;-86
2022/12/28 01:36:36;;;;;;;;;;;;;;;11.13;72.67;102512.00;5030620;28;20525;-85
2022/12/28 01:39:03;;;;;;;;;;;;;;;11.12;73.00;102515.38;5084920;28;19916;-86
2022/12/28 01:41:28;;;;;;;;;;;;;;;11.14;72.58;102521.66;5087930;28;19921;-85
2022/12/28 01:43:54;;;;;;;;;;;;;;;11.15;73.00;102523.50;5087133;28;20398;-86
2022/12/28 01:46:31;;;;;;;;;;;;;;;11.15;72.94;102522.56;5064483;28;20447;-86
2022/12/28 01:48:58;;;;;;;;;;;;;;;11.18;72.61;102509.75;5092950;28;19921;-85
2022/12/28 01:51:24;;;;;;;;;;;;;;;11.18;72.54;102518.50;5098648;28;20481;-85
2022/12/28 01:53:49;;;;;;;;;;;;;;;11.20;72.53;102514.28;5084951;28;20561;-85
2022/12/28 01:56:15;;;;;;;;;;;;;;;11.20;72.41;102519.53;5088198;28;19960;-86
2022/12/28 01:58:40;;;;;;;;;;;;;;;11.21;72.45;102528.28;5059022;28;20384;-85
2022/12/28 02:01:06;;;;;;;;;;;;;;;11.20;72.54;102529.09;5076319;28;20401;-85
2022/12/28 02:03:31;;;;;;;;;;;;;;;11.20;72.57;102523.84;5102818;28;19955;-85
2022/12/28 02:05:58;;;;;;;;;;;;;;;11.19;72.60;102525.53;5100680;28;20023;-85
2022/12/28 02:08:35;;;;;;;;;;;;;;;11.19;72.49;102537.69;5063384;28;19977;-85
2022/12/28 02:11:00;;;;;;;;;;;;;;;11.21;72.55;102564.88;5085418;28;19924;-84
2022/12/28 02:13:25;;;;;;;;;;;;;;;11.19;72.74;102556.91;5054749;28;20353;-84
2022/12/28 02:15:51;;;;;;;;;;;;;;;11.22;72.71;102558.88;5060712;28;19948;-85
2022/12/28 02:18:17;;;;;;;;;;;;;;;11.22;72.46;102561.50;5063400;28;19921;-86
2022/12/28 02:21:05;;;;;;;;;;;;;;;11.24;72.49;102567.78;5071100;28;19923;-85
2022/12/28 02:23:39;;;;;;;;;;;;;;;11.24;72.83;102564.22;5088668;28;19924;-84
2022/12/28 02:26:11;;;;;;;;;;;;;;;11.21;72.56;102562.28;5065904;28;19928;-85
2022/12/28 02:28:51;;;;;;;;;;;;;;;11.21;72.87;102576.25;5062874;28;20409;-85
2022/12/28 02:31:20;;;;;;;;;;;;;;;11.24;72.85;102587.75;5063021;28;20336;-85
2022/12/28 02:33:57;;;;;;;;;;;;;;;11.21;72.85;102588.44;5087704;28;19921;-85
2022/12/28 02:36:24;;;;;;;;;;;;;;;11.23;72.85;102584.22;5076433;28;20015;-85
2022/12/28 02:38:51;;;;;;;;;;;;;;;11.18;72.74;102580.34;5068672;28;20316;-85
2022/12/28 02:41:23;;;;;;;;;;;;;;;11.19;72.99;102579.53;5088926;28;19925;-85
2022/12/28 02:43:49;;;;;;;;;;;;;;;11.21;72.82;102584.09;5091595;28;19920;-84
2022/12/28 02:52:05;;;;;;;;;;;;;;;11.20;72.61;102594.47;5073022;28;19931;-84
2022/12/28 02:57:32;;;;;;;;;;;;;;;11.21;72.58;102597.16;5055935;28;19928;-85
2022/12/28 03:00:05;;;;;;;;;;;;;;;11.24;72.57;102598.22;5056221;28;19917;-85
2022/12/28 03:02:50;;;;;;;;;;;;;;;11.23;72.73;102610.38;5083279;28;20340;-85
2022/12/28 03:08:19;;;;;;;;;;;;;;;11.23;72.65;102625.16;5067221;28;19979;-85
2022/12/28 03:10:51;;;;;;;;;;;;;;;11.21;72.85;102620.72;5086102;28;20444;-85
2022/12/28 03:16:05;;;;;;;;;;;;;;;11.17;72.54;102621.25;5063641;28;20026;-85
2022/12/28 03:32:15;;;;;;;;;;;;;;;11.24;72.60;102651.47;5088572;28;19979;-85
2022/12/28 03:34:41;;;;;;;;;;;;;;;11.25;72.56;102660.22;5069295;28;19960;-85
2022/12/28 03:37:17;;;;;;;;;;;;;;;11.25;72.53;102668.06;5076076;28;19944;-85
2022/12/28 03:39:46;;;;;;;;;;;;;;;11.21;72.83;102669.50;5101256;28;19948;-86
2022/12/28 03:45:31;;;;;;;;;;;;;;;11.25;72.47;102674.19;5050344;28;19927;-86
2022/12/28 03:47:57;;;;;;;;;;;;;;;11.09;72.89;102658.97;5061845;28;20413;-85
2022/12/28 03:50:23;;;;;;;;;;;;;;;11.20;72.82;102686.00;5097464;28;20022;-84
2022/12/28 03:52:50;;;;;;;;;;;;;;;11.18;72.57;102693.69;5088006;28;20011;-85
2022/12/28 03:55:15;;;;;;;;;;;;;;;11.19;72.44;102695.50;5098905;28;20301;-84
2022/12/28 03:57:41;;;;;;;;;;;;;;;11.21;72.66;102707.00;5090591;28;19927;-85
2022/12/28 04:00:08;;;;;;;;;;;;;;;11.18;72.50;102701.53;5047742;28;20011;-84
2022/12/28 04:02:33;;;;;;;;;;;;;;;11.23;72.59;102709.75;5059766;28;19924;-84
2022/12/28 04:04:59;;;;;;;;;;;;;;;11.24;72.40;102721.13;5087049;28;19932;-85
2022/12/28 04:07:24;;;;;;;;;;;;;;;11.21;72.48;102720.09;5062628;28;19920;-85
2022/12/28 04:09:50;;;;;;;;;;;;;;;11.27;72.25;102727.53;5062396;28;20448;-86
2022/12/28 04:12:15;;;;;;;;;;;;;;;11.25;72.07;102738.66;5079661;28;20381;-85
2022/12/28 04:14:40;;;;;;;;;;;;;;;11.21;72.29;102727.94;5091181;28;19999;-85
2022/12/28 04:17:06;;;;;;;;;;;;;;;11.23;72.13;102729.78;5084077;28;20405;-84
2022/12/28 04:19:31;;;;;;;;;;;;;;;11.21;72.12;102727.94;5084851;28;20393;-85
2022/12/28 04:21:57;;;;;;;;;;;;;;;11.21;72.08;102740.09;5068998;28;20344;-85
2022/12/28 04:24:22;;;;;;;;;;;;;;;11.24;72.26;102735.16;5071037;28;20670;-85
2022/12/28 04:26:48;;;;;;;;;;;;;;;11.19;72.23;102726.00;5062398;28;19931;-85
2022/12/28 04:29:13;;;;;;;;;;;;;;;11.22;71.81;102731.50;5071432;28;20333;-85
2022/12/28 04:31:38;;;;;;;;;;;;;;;11.22;72.12;102736.72;5061618;28;19931;-85
2022/12/28 04:34:05;;;;;;;;;;;;;;;11.20;71.10;102743.53;5088206;28;20432;-85
2022/12/28 04:36:31;;;;;;;;;;;;;;;11.15;71.17;102744.81;5071826;28;19917;-85
2022/12/28 04:38:57;;;;;;;;;;;;;;;11.14;71.43;102753.47;5076787;28;20417;-85
2022/12/28 04:41:22;;;;;;;;;;;;;;;11.13;71.58;102749.94;5069022;28;19927;-85
2022/12/28 04:43:48;;;;;;;;;;;;;;;11.14;71.41;102762.22;5089022;28;19925;-85
2022/12/28 04:46:14;;;;;;;;;;;;;;;11.10;71.02;102769.69;5049969;28;19928;-86
2022/12/28 04:48:39;;;;;;;;;;;;;;;11.12;70.87;102768.13;5077050;28;19975;-83
2022/12/28 04:51:08;;;;;;;;;;;;;;;11.14;70.92;102764.84;5082075;28;19952;-85
2022/12/28 04:53:37;;;;;;;;;;;;;;;11.17;71.33;102769.41;5088026;28;19963;-86
2022/12/28 04:56:03;;;;;;;;;;;;;;;11.18;70.82;102776.47;5053025;28;19921;-85
2022/12/28 04:58:28;;;;;;;;;;;;;;;11.19;70.98;102773.06;5089187;28;20322;-85
2022/12/28 05:01:00;;;;;;;;;;;;;;;11.17;71.26;102767.69;5073379;28;19925;-86
2022/12/28 05:03:25;;;;;;;;;;;;;;;11.20;71.37;102770.59;5064849;28;19921;-85
2022/12/28 05:05:51;;;;;;;;;;;;;;;11.13;71.61;102760.41;5063913;28;19928;-85
2022/12/28 05:08:16;;;;;;;;;;;;;;;11.17;71.42;102767.69;5062521;28;19928;-86
2022/12/28 05:10:41;;;;;;;;;;;;;;;11.17;71.56;102777.25;5090416;28;20907;-86
2022/12/28 05:13:07;;;;;;;;;;;;;;;11.17;71.24;102770.31;5082183;28;19916;-86
2022/12/28 05:15:32;;;;;;;;;;;;;;;11.14;71.72;102783.16;5059322;28;20396;-83
2022/12/28 05:17:58;;;;;;;;;;;;;;;11.17;71.42;102787.72;5059916;28;20473;-84
2022/12/28 05:20:23;;;;;;;;;;;;;;;11.16;71.49;102788.50;5088843;28;20376;-85
2022/12/28 05:22:48;;;;;;;;;;;;;;;11.18;71.74;102786.94;5094535;28;20429;-84
2022/12/28 05:25:14;;;;;;;;;;;;;;;11.17;71.18;102785.09;5055211;28;20428;-84
2022/12/28 05:27:41;;;;;;;;;;;;;;;11.16;71.65;102780.66;5062796;28;20208;-84
2022/12/28 05:30:07;;;;;;;;;;;;;;;11.13;71.24;102785.63;5096696;28;19964;-84
2022/12/28 05:32:32;;;;;;;;;;;;;;;11.10;71.13;102783.66;5054422;28;19913;-83
2022/12/28 05:34:58;;;;;;;;;;;;;;;11.16;71.07;102793.75;5055159;28;20283;-83
2022/12/28 05:37:23;;;;;;;;;;;;;;;11.16;71.05;102798.97;5055828;28;20395;-83
2022/12/28 05:39:49;;;;;;;;;;;;;;;11.18;70.92;102798.31;5059327;28;19925;-83
2022/12/28 05:42:14;;;;;;;;;;;;;;;11.18;71.00;102808.78;5061647;28;20441;-83
2022/12/28 05:44:39;;;;;;;;;;;;;;;11.19;71.36;102809.69;5049154;28;20413;-84
2022/12/28 05:47:05;;;;;;;;;;;;;;;11.17;70.98;102806.00;5093295;28;19978;-83
2022/12/28 05:49:30;;;;;;;;;;;;;;;11.16;71.07;102798.97;5081946;28;19924;-84
2022/12/28 05:51:56;;;;;;;;;;;;;;;11.11;71.72;102802.88;5089484;28;19921;-84
2022/12/28 05:54:21;;;;;;;;;;;;;;;11.13;71.64;102804.88;5064135;28;20526;-84
2022/12/28 05:56:48;;;;;;;;;;;;;;;11.20;71.01;102814.13;5057519;28;20405;-85
2022/12/28 05:59:14;;;;;;;;;;;;;;;11.15;71.07;102813.75;5080942;28;20340;-86
2022/12/28 06:01:40;;;;;;;;;;;;;;;11.13;70.91;102811.78;5046306;28;20015;-86
2022/12/28 06:04:07;;;;;;;;;;;;;;;11.11;70.78;102815.94;5083596;28;19921;-85
2022/12/28 06:06:32;;;;;;;;;;;;;;;11.14;70.53;102817.13;5054331;28;19920;-84
2022/12/28 06:08:58;;;;;;;;;;;;;;;11.15;71.04;102813.75;5036443;28;20382;-85
2022/12/28 06:11:24;;;;;;;;;;;;;;;11.10;71.01;102812.44;5050276;28;20004;-85
2022/12/28 06:13:50;;;;;;;;;;;;;;;11.09;71.18;102822.75;5089345;28;19924;-84
2022/12/28 06:16:16;;;;;;;;;;;;;;;11.12;70.50;102829.16;5069542;28;20065;-86
2022/12/28 06:18:42;;;;;;;;;;;;;;;11.06;71.19;102828.66;5078520;28;19928;-86
2022/12/28 06:21:09;;;;;;;;;;;;;;;11.08;70.88;102839.25;5085660;28;19916;-87
2022/12/28 06:23:34;;;;;;;;;;;;;;;11.09;70.66;102830.59;5087756;28;20015;-86
2022/12/28 06:26:00;;;;;;;;;;;;;;;11.13;70.97;102825.78;5084943;28;20004;-86
2022/12/28 06:28:26;;;;;;;;;;;;;;;11.13;70.47;102835.31;5070738;28;20774;-86
2022/12/28 06:30:51;;;;;;;;;;;;;;;10.99;69.78;102832.44;5064472;28;19925;-87
2022/12/28 06:33:17;;;;;;;;;;;;;;;11.04;69.91;102830.22;5056279;28;19924;-86
2022/12/28 06:35:42;;;;;;;;;;;;;;;11.06;70.32;102832.97;5094418;28;20436;-83
2022/12/28 06:38:07;;;;;;;;;;;;;;;11.06;70.29;102840.81;5049016;28;20410;-85
2022/12/28 06:40:33;;;;;;;;;;;;;;;11.04;70.15;102852.84;5080458;28;20398;-85
2022/12/28 06:42:58;;;;;;;;;;;;;;;11.05;70.66;102857.25;5063135;28;20428;-85
2022/12/28 06:45:24;;;;;;;;;;;;;;;11.08;70.55;102858.44;5068126;28;20309;-86
2022/12/28 06:47:49;;;;;;;;;;;;;;;11.09;70.28;102851.50;5072274;28;20394;-84
2022/12/28 06:50:15;;;;;;;;;;;;;;;11.13;70.54;102861.47;5056443;28;19924;-87
2022/12/28 06:52:40;;;;;;;;;;;;;;;11.10;70.42;102854.28;5054581;28;19920;-87
2022/12/28 06:55:06;;;;;;;;;;;;;;;11.12;70.33;102864.88;5069586;28;19923;-85
2022/12/28 06:57:31;;;;;;;;;;;;;;;11.07;70.59;102869.72;5087838;28;20385;-86
2022/12/28 06:59:56;;;;;;;;;;;;;;;11.07;70.68;102866.16;5063878;28;19977;-85
2022/12/28 07:02:22;;;;;;;;;;;;;;;11.04;70.58;102876.38;5054835;28;20378;-83
2022/12/28 07:04:47;;;;;;;;;;;;;;;11.08;70.05;102883.69;5059352;28;20427;-85
2022/12/28 07:07:13;;;;;;;;;;;;;;;11.08;70.47;102883.69;5066630;28;20252;-85
2022/12/28 07:09:38;;;;;;;;;;;;;;;11.10;70.19;102882.13;5066793;28;19976;-85
2022/12/28 07:12:04;;;;;;;;;;;;;;;11.06;70.81;102873.09;5070600;28;20423;-85
2022/12/28 07:14:31;;;;;;;;;;;;;;;11.13;70.43;102874.53;5054121;28;20383;-84
2022/12/28 07:16:56;;;;;;;;;;;;;;;11.15;70.29;102879.13;5092166;28;19970;-84
2022/12/28 07:19:22;;;;;;;;;;;;;;;11.09;70.78;102882.91;5063119;28;19924;-85
2022/12/28 07:21:53;;;;;;;;;;;;;;;11.14;70.79;102882.50;5071837;28;20374;-84
2022/12/28 07:24:19;;;;;;;;;;;;;;;11.18;70.42;102887.22;5067501;28;19993;-84
2022/12/28 07:26:44;;;;;;;;;;;;;;;11.20;70.37;102882.13;5068771;28;19960;-84
2022/12/28 07:29:10;;;;;;;;;;;;;;;11.20;70.26;102884.75;5078249;28;20425;-85
2022/12/28 07:31:39;;;;;;;;;;;;;;;11.21;70.81;102881.34;5062541;28;20007;-85
2022/12/28 07:34:05;;;;;;;;;;;;;;;11.23;70.82;102876.25;5046150;28;19928;-84
2022/12/28 07:36:31;;;;;;;;;;;;;;;11.20;71.03;102872.59;5070864;28;19920;-85
2022/12/28 07:42:26;;;;;;;;;;;;;;;11.22;70.86;102875.34;5069210;28;19965;-86
2022/12/28 07:45:11;;;;;;;;;;;;;;;11.19;71.52;102873.34;5050397;28;19956;-87
2022/12/28 07:47:39;;;;;;;;;;;;;;;11.19;71.25;102881.19;5064814;28;19921;-87
2022/12/28 07:50:04;;;;;;;;;;;;;;;11.21;71.09;102891.78;5093081;28;20393;-87
2022/12/28 07:52:30;;;;;;;;;;;;;;;11.19;71.21;102902.13;5051938;28;19921;-86
2022/12/28 07:54:55;;;;;;;;;;;;;;;11.20;71.16;102901.34;5070799;28;20324;-86
2022/12/28 07:57:20;;;;;;;;;;;;;;;11.24;71.10;102896.38;5099634;28;19921;-87
2022/12/28 07:59:46;;;;;;;;;;;;;;;11.22;71.41;102893.66;5072614;28;20369;-86
2022/12/28 08:02:11;;;;;;;;;;;;;;;11.18;71.29;102900.31;5084446;28;20020;-91
2022/12/28 08:04:42;;;;;;;;;;;;;;;11.23;71.05;102903.31;5082920;28;19929;-89
2022/12/28 08:07:08;;;;;;;;;;;;;;;11.22;71.30;102896.25;5067669;28;19920;-90
2022/12/28 08:09:36;;;;;;;;;;;;;;;11.25;71.15;102898.22;5088706;28;20041;-89
2022/12/28 08:12:07;;;;;;;;;;;;;;;11.24;71.19;102909.44;5093667;28;20070;-90
2022/12/28 08:14:37;;;;;;;;;;;;;;;11.23;71.31;102905.91;5055964;28;20027;-91
2022/12/28 08:17:02;;;;;;;;;;;;;;;11.24;71.45;102909.44;5036293;28;20029;-86
2022/12/28 08:19:28;;;;;;;;;;;;;;;11.26;71.23;102919.28;5052701;28;20387;-87
2022/12/28 08:21:53;;;;;;;;;;;;;;;11.25;71.15;102914.81;5059773;28;19944;-87
2022/12/28 08:24:18;;;;;;;;;;;;;;;11.25;71.17;102914.81;5064763;28;20026;-86
2022/12/28 08:26:44;;;;;;;;;;;;;;;11.24;71.20;102913.00;5085679;28;20405;-87
2022/12/28 08:29:11;;;;;;;;;;;;;;;11.28;70.98;102914.16;5051148;28;20481;-85
2022/12/28 08:31:37;;;;;;;;;;;;;;;11.26;71.30;102916.66;5065272;28;20015;-87
2022/12/28 08:34:04;;;;;;;;;;;;;;;11.27;71.34;102914.97;5063004;28;19975;-85
2022/12/28 08:36:29;;;;;;;;;;;;;;;11.25;71.25;102916.53;5079214;28;19924;-87
2022/12/28 08:38:56;;;;;;;;;;;;;;;11.24;71.55;102920.84;5076103;28;20134;-85
2022/12/28 08:41:22;;;;;;;;;;;;;;;11.27;71.18;102918.47;5069286;28;19921;-84
2022/12/28 08:43:51;;;;;;;;;;;;;;;11.24;71.45;102914.69;5055904;28;19928;-86
2022/12/28 08:46:35;;;;;;;;;;;;;;;11.10;71.85;102914.41;5087842;28;19963;-84
2022/12/28 08:49:00;;;;;;;;;;;;;;;11.12;72.02;102918.09;5056458;28;20014;-84
2022/12/28 08:51:26;;;;;;;;;;;;;;;11.19;71.69;102914.28;5094256;28;20478;-84
2022/12/28 08:53:51;;;;;;;;;;;;;;;11.25;71.58;102914.81;5069821;28;19916;-85
2022/12/28 08:56:18;;;;;;;;;;;;;;;11.24;71.24;102913.00;5069796;28;20456;-85
2022/12/28 08:58:44;;;;;;;;;;;;;;;11.26;71.18;102906.19;5061649;28;20404;-85
2022/12/28 09:01:09;;;;;;;;;;;;;;;11.28;71.33;102908.94;5103013;28;20412;-85
2022/12/28 09:03:36;;;;;;;;;;;;;;;11.30;70.88;102902.13;5057279;28;19921;-85
2022/12/28 09:06:03;;;;;;;;;;;;;;;11.32;71.15;102908.41;5062380;28;19916;-85
2022/12/28 09:08:29;;;;;;;;;;;;;;;11.34;71.26;102907.75;5052856;28;19916;-84
2022/12/28 09:10:57;;;;;;;;;;;;;;;11.37;71.18;102902.78;5039770;28;19952;-85
2022/12/28 09:13:22;;;;;;;;;;;;;;;11.36;71.24;102905.25;5063890;28;19917;-85
2022/12/28 09:16:01;;;;;;;;;;;;;;;11.38;71.42;102904.59;5097232;28;19916;-85
2022/12/28 09:18:27;;;;;;;;;;;;;;;11.38;71.32;102902.00;5080139;28;19949;-85
2022/12/28 09:20:53;;;;;;;;;;;;;;;11.42;71.55;102900.56;5045661;28;19920;-84
2022/12/28 09:23:18;;;;;;;;;;;;;;;11.43;71.60;102905.03;5063848;28;19973;-84
2022/12/28 09:25:43;;;;;;;;;;;;;;;11.43;72.29;102897.19;5053301;28;19932;-84
2022/12/28 09:28:09;;;;;;;;;;;;;;;11.43;72.76;102898.84;5083044;28;20364;-84
2022/12/28 09:30:34;;;;;;;;;;;;;;;11.44;73.05;102904.22;5051409;28;19921;-84
2022/12/28 09:35:44;;;;;;;;;;;;;;;11.49;74.19;102900.28;5056903;28;19966;-86
2022/12/28 09:38:09;;;;;;;;;;;;;;;11.53;74.25;102894.53;5049315;28;20019;-86
2022/12/28 09:40:35;;;;;;;;;;;;;;;11.57;74.77;102895.69;5068131;28;19916;-85
2022/12/28 09:43:01;;;;;;;;;;;;;;;11.55;75.25;102900.78;5102688;28;19932;-86
2022/12/28 09:45:26;;;;;;;;;;;;;;;11.55;76.07;102900.78;5070546;28;19924;-84
2022/12/28 09:47:54;;;;;;;;;;;;;;;11.55;76.41;102895.56;5098410;28;19923;-85
2022/12/28 09:50:28;;;;;;;;;;;;;;;11.56;76.63;102892.19;5090868;28;19916;-85
2022/12/28 09:53:14;;;;;;;;;;;;;;;11.60;76.65;102890.75;5102962;28;19924;-85
2022/12/28 09:55:40;;;;;;;;;;;;;;;11.63;77.78;102890.97;5044638;28;19917;-83
2022/12/28 09:58:10;;;;;;;;;;;;;;;11.63;77.94;102890.06;5070807;28;20043;-85
2022/12/28 10:00:46;;;;;;;;;;;;;;;11.63;78.25;102883.13;5105006;28;19916;-84
2022/12/28 10:03:18;;;;;;;;;;;;;;;11.66;78.13;102887.69;5073333;28;19927;-83
2022/12/28 10:05:44;;;;;;;;;;;;;;;11.65;79.33;102884.19;5064468;28;19916;-84
2022/12/28 10:08:10;;;;;;;;;;;;;;;11.68;79.26;102876.56;5106259;28;19925;-84
2022/12/28 10:10:35;;;;;;;;;;;;;;;11.68;79.68;102884.41;5106336;28;19917;-85
2022/12/28 10:13:02;;;;;;;;;;;;;;;11.67;80.10;102884.31;5073594;28;19932;-84
2022/12/28 10:15:27;;;;;;;;;;;;;;;11.71;80.08;102886.41;5074201;28;19956;-83
2022/12/28 10:17:52;;;;;;;;;;;;;;;11.74;79.96;102890.16;5073690;28;20110;-85
2022/12/28 10:20:19;;;;;;;;;;;;;;;11.74;80.68;102881.41;5071976;28;19916;-84
2022/12/28 10:22:46;;;;;;;;;;;;;;;11.71;81.02;102882.06;5064246;28;19932;-85
2022/12/28 10:25:12;;;;;;;;;;;;;;;11.72;81.37;102889.13;5088133;28;19928;-84
2022/12/28 10:27:37;;;;;;;;;;;;;;;11.77;80.70;102890.44;5068747;28;19986;-84
2022/12/28 10:30:05;;;;;;;;;;;;;;;11.77;81.27;102879.06;5106652;28;20352;-84
2022/12/28 10:32:51;;;;;;;;;;;;;;;11.81;81.26;102875.91;5075252;28;19926;-84
2022/12/28 10:35:23;;;;;;;;;;;;;;;11.82;80.60;102880.34;5052707;28;19928;-84
2022/12/28 10:37:49;;;;;;;;;;;;;;;11.79;81.19;102881.00;5042086;28;19917;-84
2022/12/28 10:40:21;;;;;;;;;;;;;;;11.79;81.69;102880.09;5059240;28;19927;-84
2022/12/28 10:42:48;;;;;;;;;;;;;;;11.79;79.79;102874.88;5095251;28;19928;-84
2022/12/28 10:45:18;;;;;;;;;;;;;;;11.80;80.68;102874.97;5099851;28;19970;-85
2022/12/28 10:47:47;;;;;;;;;;;;;;;11.83;80.43;102874.31;5106093;28;20390;-86
2022/12/28 10:50:31;;;;;;;;;;;;;;;11.79;81.02;102870.53;5106351;28;19916;-85
2022/12/28 10:52:57;;;;;;;;;;;;;;;11.79;81.36;102877.50;5072483;28;20359;-86
2022/12/28 10:55:27;;;;;;;;;;;;;;;11.80;80.89;102879.31;5100523;28;19967;-85
2022/12/28 10:57:52;;;;;;;;;;;;;;;11.85;79.98;102872.72;5093430;28;19927;-85
2022/12/28 11:00:19;;;;;;;;;;;;;;;11.86;80.39;102866.72;5105564;28;19920;-85
2022/12/28 11:02:45;;;;;;;;;;;;;;;11.89;80.21;102868.69;5100801;28;19955;-86
2022/12/28 11:05:18;;;;;;;;;;;;;;;11.84;80.61;102872.63;5085742;28;20011;-85
2022/12/28 11:07:44;;;;;;;;;;;;;;;11.82;80.14;102873.41;5069420;28;20442;-86
2022/12/28 11:10:24;;;;;;;;;;;;;;;11.77;80.00;102868.59;5061937;28;19958;-87
2022/12/28 11:12:50;;;;;;;;;;;;;;;11.84;79.75;102870.00;5074123;28;19927;-86
2022/12/28 11:15:18;;;;;;;;;;;;;;;11.81;80.18;102873.28;5104943;28;19924;-86
2022/12/28 11:17:44;;;;;;;;;;;;;;;11.87;79.95;102871.16;5106227;28;19963;-85
2022/12/28 11:20:23;;;;;;;;;;;;;;;11.92;78.47;102868.97;5105876;28;19963;-86
2022/12/28 11:22:49;;;;;;;;;;;;;;;11.85;79.88;102867.50;5073255;28;19926;-85
2022/12/28 11:25:15;;;;;;;;;;;;;;;11.88;79.32;102864.25;5072670;28;19924;-86
2022/12/28 11:27:41;;;;;;;;;;;;;;;11.87;79.17;102865.00;5105274;28;19923;-86
2022/12/28 11:30:11;;;;;;;;;;;;;;;11.87;79.62;102867.63;5096339;28;19917;-86
2022/12/28 11:32:57;;;;;;;;;;;;;;;11.90;79.33;102870.56;5078862;28;19916;-86
2022/12/28 11:35:23;;;;;;;;;;;;;;;11.87;79.18;102871.16;5071284;28;19927;-86
2022/12/28 11:37:49;;;;;;;;;;;;;;;11.86;79.91;102868.44;5105628;28;19943;-85
2022/12/28 11:40:34;;;;;;;;;;;;;;;11.86;79.54;102861.50;5092863;28;19924;-85
2022/12/28 11:42:59;;;;;;;;;;;;;;;11.90;79.15;102874.06;5068839;28;19927;-85
2022/12/28 11:45:44;;;;;;;;;;;;;;;11.88;79.65;102874.72;5052835;28;19921;-87
2022/12/28 11:48:28;;;;;;;;;;;;;;;11.90;79.21;102874.06;5064122;28;19924;-87
2022/12/28 11:50:53;;;;;;;;;;;;;;;11.81;79.19;102865.44;5065447;28;19971;-87
2022/12/28 11:53:21;;;;;;;;;;;;;;;11.91;79.60;102881.13;5054479;28;19920;-87
2022/12/28 11:55:53;;;;;;;;;;;;;;;11.93;78.66;102881.25;5072679;28;19916;-87
2022/12/28 11:58:38;;;;;;;;;;;;;;;11.93;78.99;102878.66;5070996;28;20061;-86
2022/12/28 12:01:04;;;;;;;;;;;;;;;11.94;78.70;102873.53;5047582;28;19988;-85
2022/12/28 12:06:40;;;;;;;;;;;;;;;11.94;78.38;102870.94;5050641;28;19966;-86
2022/12/28 12:09:22;;;;;;;;;;;;;;;11.94;78.64;102870.94;5067378;28;20320;-86
2022/12/28 12:11:51;;;;;;;;;;;;;;;11.96;78.43;102871.06;5070827;28;20439;-86
2022/12/28 12:14:35;;;;;;;;;;;;;;;11.95;78.81;102872.75;5056653;28;20305;-86
2022/12/28 12:17:19;;;;;;;;;;;;;;;11.98;78.52;102861.59;5093622;28;19916;-86
2022/12/28 12:19:50;;;;;;;;;;;;;;;12.00;78.70;102866.19;5070187;28;19932;-85
2022/12/28 12:22:23;;;;;;;;;;;;;;;12.03;78.05;102857.66;5070757;28;19927;-85
2022/12/28 12:24:48;;;;;;;;;;;;;;;12.04;77.65;102863.81;5077816;28;19924;-84
2022/12/28 12:27:18;;;;;;;;;;;;;;;12.06;77.96;102867.47;5071009;28;19932;-85
2022/12/28 12:29:44;;;;;;;;;;;;;;;12.04;78.39;102864.72;5065124;28;19917;-85
2022/12/28 12:32:23;;;;;;;;;;;;;;;12.08;78.34;102864.19;5064852;28;19919;-85
2022/12/28 12:34:49;;;;;;;;;;;;;;;12.11;78.30;102861.84;5095929;28;19963;-85
2022/12/28 12:37:27;;;;;;;;;;;;;;;12.14;78.12;102866.41;5100085;28;19989;-84
2022/12/28 12:39:59;;;;;;;;;;;;;;;12.12;77.98;102861.03;5071105;28;19974;-85
2022/12/28 12:42:27;;;;;;;;;;;;;;;12.16;78.03;102870.06;5051275;28;19921;-84
2022/12/28 12:45:12;;;;;;;;;;;;;;;12.14;78.40;102872.53;5057986;28;19931;-84
2022/12/28 12:47:59;;;;;;;;;;;;;;;12.18;78.50;102858.91;5046840;28;19928;-83
2022/12/28 12:50:30;;;;;;;;;;;;;;;12.21;78.34;102859.16;5049754;28;19920;-84
2022/12/28 12:53:15;;;;;;;;;;;;;;;12.25;77.86;102851.53;5091084;28;19932;-84
2022/12/28 12:55:52;;;;;;;;;;;;;;;12.24;78.04;102858.50;5043087;28;19928;-84
2022/12/28 12:58:24;;;;;;;;;;;;;;;12.21;78.48;102860.84;5087281;28;19923;-85
2022/12/28 13:01:11;;;;;;;;;;;;;;;12.23;78.08;102859.28;5071454;28;20435;-85
2022/12/28 13:03:46;;;;;;;;;;;;;;;12.27;78.52;102856.09;5057059;28;20439;-84
2022/12/28 13:06:15;;;;;;;;;;;;;;;12.23;78.60;102856.66;5066837;28;19916;-84
2022/12/28 13:08:44;;;;;;;;;;;;;;;12.24;78.73;102857.59;5069729;28;19924;-84
2022/12/28 13:11:10;;;;;;;;;;;;;;;12.20;79.02;102854.69;5057299;28;19924;-84
2022/12/28 13:13:38;;;;;;;;;;;;;;;12.24;78.65;102848.03;5085951;28;19920;-86
2022/12/28 13:16:04;;;;;;;;;;;;;;;12.19;79.19;102860.75;5086420;28;20389;-84
2022/12/28 13:18:29;;;;;;;;;;;;;;;12.21;78.78;102853.00;5104918;28;20382;-83
2022/12/28 13:20:56;;;;;;;;;;;;;;;12.21;78.73;102845.13;5063833;28;19921;-83